sensor_id;sensor_type;location;lat;lon;timestamp;pressure;altitude;pressure_sealevel;temperature;humidity
24336;BME280;33098;52.400;16.880;2022-07-23T00:00:19;100818.96;;;22.47;64.67
24336;BME280;33098;52.400;16.880;2022-07-23T00:03:01;100818.35;;;22.45;64.82
24336;BME280;33098;52.400;16.880;2022-07-23T00:05:28;100819.84;;;22.37;64.73
24336;BME280;33098;52.400;16.880;2022-07-23T00:07:54;100822.91;;;22.33;65.00
24336;BME280;33098;52.400;16.880;2022-07-23T00:10:21;100824.92;;;22.36;65.14
24336;BME280;33098;52.400;16.880;2022-07-23T00:12:47;100822.45;;;22.36;65.34
24336;BME280;33098;52.400;16.880;2022-07-23T00:15:14;100820.56;;;22.30;65.45
24336;BME280;33098;52.400;16.880;2022-07-23T00:17:41;100822.80;;;22.31;65.53
24336;BME280;33098;52.400;16.880;2022-07-23T00:20:08;100823.81;;;22.35;65.83
24336;BME280;33098;52.400;16.880;2022-07-23T00:22:34;100819.44;;;22.39;65.70
24336;BME280;33098;52.400;16.880;2022-07-23T00:25:01;100816.91;;;22.31;65.60
24336;BME280;33098;52.400;16.880;2022-07-23T00:27:27;100820.85;;;22.30;65.75
24336;BME280;33098;52.400;16.880;2022-07-23T00:29:54;100818.58;;;22.25;65.74
24336;BME280;33098;52.400;16.880;2022-07-23T00:32:20;100812.08;;;22.22;66.15
24336;BME280;33098;52.400;16.880;2022-07-23T00:34:47;100812.73;;;22.19;66.15
24336;BME280;33098;52.400;16.880;2022-07-23T00:37:14;100818.95;;;22.14;66.22
24336;BME280;33098;52.400;16.880;2022-07-23T00:39:40;100818.13;;;22.09;66.31
24336;BME280;33098;52.400;16.880;2022-07-23T00:42:07;100817.70;;;22.08;66.43
24336;BME280;33098;52.400;16.880;2022-07-23T00:44:33;100811.60;;;22.02;66.54
24336;BME280;33098;52.400;16.880;2022-07-23T00:47:00;100809.92;;;21.97;66.87
24336;BME280;33098;52.400;16.880;2022-07-23T00:49:29;100811.90;;;21.93;66.87
24336;BME280;33098;52.400;16.880;2022-07-23T00:51:56;100814.11;;;21.91;67.09
24336;BME280;33098;52.400;16.880;2022-07-23T00:54:25;100810.98;;;21.87;67.16
24336;BME280;33098;52.400;16.880;2022-07-23T00:56:52;100810.83;;;21.80;67.36
24336;BME280;33098;52.400;16.880;2022-07-23T00:59:19;100801.36;;;21.79;67.60
24336;BME280;33098;52.400;16.880;2022-07-23T01:01:46;100799.13;;;21.84;67.89
24336;BME280;33098;52.400;16.880;2022-07-23T01:04:15;100796.10;;;21.88;67.96
24336;BME280;33098;52.400;16.880;2022-07-23T01:06:43;100795.59;;;21.92;68.08
24336;BME280;33098;52.400;16.880;2022-07-23T01:09:11;100799.95;;;21.92;67.81
24336;BME280;33098;52.400;16.880;2022-07-23T01:11:38;100801.83;;;21.91;67.93
24336;BME280;33098;52.400;16.880;2022-07-23T01:14:10;100801.11;;;21.89;67.92
24336;BME280;33098;52.400;16.880;2022-07-23T01:16:38;100795.80;;;21.84;68.16
24336;BME280;33098;52.400;16.880;2022-07-23T01:19:04;100791.60;;;21.85;68.30
24336;BME280;33098;52.400;16.880;2022-07-23T01:21:36;100788.87;;;21.84;68.46
24336;BME280;33098;52.400;16.880;2022-07-23T01:24:03;100794.39;;;21.84;68.42
24336;BME280;33098;52.400;16.880;2022-07-23T01:26:31;100797.25;;;21.83;68.45
24336;BME280;33098;52.400;16.880;2022-07-23T01:28:57;100791.66;;;21.80;68.38
24336;BME280;33098;52.400;16.880;2022-07-23T01:31:24;100793.85;;;21.80;68.62
24336;BME280;33098;52.400;16.880;2022-07-23T01:33:51;100788.91;;;21.77;68.56
24336;BME280;33098;52.400;16.880;2022-07-23T01:36:17;100789.35;;;21.74;68.61
24336;BME280;33098;52.400;16.880;2022-07-23T01:38:44;100790.58;;;21.74;68.90
24336;BME280;33098;52.400;16.880;2022-07-23T01:41:11;100787.56;;;21.74;68.79
24336;BME280;33098;52.400;16.880;2022-07-23T01:43:37;100782.86;;;21.70;68.77
24336;BME280;33098;52.400;16.880;2022-07-23T01:46:04;100779.75;;;21.58;68.82
24336;BME280;33098;52.400;16.880;2022-07-23T01:48:37;100776.10;;;21.50;69.20
24336;BME280;33098;52.400;16.880;2022-07-23T01:51:22;100771.30;;;21.48;69.51
24336;BME280;33098;52.400;16.880;2022-07-23T01:54:02;100768.95;;;21.48;69.57
24336;BME280;33098;52.400;16.880;2022-07-23T01:56:28;100775.95;;;21.43;69.72
24336;BME280;33098;52.400;16.880;2022-07-23T01:58:55;100774.78;;;21.41;69.94
24336;BME280;33098;52.400;16.880;2022-07-23T02:01:22;100769.75;;;21.38;70.11
24336;BME280;33098;52.400;16.880;2022-07-23T02:03:48;100771.64;;;21.31;70.21
24336;BME280;33098;52.400;16.880;2022-07-23T02:06:15;100773.22;;;21.33;70.42
24336;BME280;33098;52.400;16.880;2022-07-23T02:08:41;100775.21;;;21.33;70.58
24336;BME280;33098;52.400;16.880;2022-07-23T02:11:08;100775.89;;;21.24;70.60
24336;BME280;33098;52.400;16.880;2022-07-23T02:13:35;100772.75;;;21.17;70.82
24336;BME280;33098;52.400;16.880;2022-07-23T02:16:01;100773.32;;;21.21;71.30
24336;BME280;33098;52.400;16.880;2022-07-23T02:18:29;100782.45;;;21.25;71.20
24336;BME280;33098;52.400;16.880;2022-07-23T02:20:56;100784.23;;;21.22;71.25
24336;BME280;33098;52.400;16.880;2022-07-23T02:23:22;100784.77;;;21.21;71.29
24336;BME280;33098;52.400;16.880;2022-07-23T02:25:49;100784.86;;;21.25;71.43
24336;BME280;33098;52.400;16.880;2022-07-23T02:28:18;100786.26;;;21.31;71.35
24336;BME280;33098;52.400;16.880;2022-07-23T02:30:45;100786.32;;;21.37;71.58
24336;BME280;33098;52.400;16.880;2022-07-23T02:33:12;100785.69;;;21.42;71.45
24336;BME280;33098;52.400;16.880;2022-07-23T02:35:39;100780.90;;;21.43;71.56
24336;BME280;33098;52.400;16.880;2022-07-23T02:38:06;100774.43;;;21.47;71.54
24336;BME280;33098;52.400;16.880;2022-07-23T02:40:32;100779.57;;;21.51;71.41
24336;BME280;33098;52.400;16.880;2022-07-23T02:42:59;100769.34;;;21.55;71.41
24336;BME280;33098;52.400;16.880;2022-07-23T02:45:25;100761.63;;;21.56;71.49
24336;BME280;33098;52.400;16.880;2022-07-23T02:47:53;100759.31;;;21.59;71.56
24336;BME280;33098;52.400;16.880;2022-07-23T02:50:20;100757.33;;;21.58;71.38
24336;BME280;33098;52.400;16.880;2022-07-23T02:52:47;100749.92;;;21.53;71.45
24336;BME280;33098;52.400;16.880;2022-07-23T02:55:13;100755.20;;;21.48;71.44
24336;BME280;33098;52.400;16.880;2022-07-23T02:57:40;100755.91;;;21.42;71.50
24336;BME280;33098;52.400;16.880;2022-07-23T03:00:07;100752.70;;;21.37;71.75
24336;BME280;33098;52.400;16.880;2022-07-23T03:02:34;100760.30;;;21.31;71.63
24336;BME280;33098;52.400;16.880;2022-07-23T03:05:00;100761.42;;;21.26;72.10
24336;BME280;33098;52.400;16.880;2022-07-23T03:07:27;100768.67;;;21.26;72.16
24336;BME280;33098;52.400;16.880;2022-07-23T03:09:54;100765.73;;;21.21;72.12
24336;BME280;33098;52.400;16.880;2022-07-23T03:12:23;100761.24;;;21.21;72.53
24336;BME280;33098;52.400;16.880;2022-07-23T03:14:50;100760.80;;;21.22;72.76
24336;BME280;33098;52.400;16.880;2022-07-23T03:17:16;100769.98;;;21.18;72.73
24336;BME280;33098;52.400;16.880;2022-07-23T03:19:43;100767.62;;;21.22;73.14
24336;BME280;33098;52.400;16.880;2022-07-23T03:22:10;100770.96;;;21.28;73.06
24336;BME280;33098;52.400;16.880;2022-07-23T03:24:36;100767.11;;;21.30;73.14
24336;BME280;33098;52.400;16.880;2022-07-23T03:27:26;100766.94;;;21.29;73.06
24336;BME280;33098;52.400;16.880;2022-07-23T03:29:54;100766.05;;;21.34;73.46
24336;BME280;33098;52.400;16.880;2022-07-23T03:32:22;100766.68;;;21.39;73.43
24336;BME280;33098;52.400;16.880;2022-07-23T03:34:49;100764.79;;;21.43;73.56
24336;BME280;33098;52.400;16.880;2022-07-23T03:37:16;100766.92;;;21.44;73.33
24336;BME280;33098;52.400;16.880;2022-07-23T03:39:43;100757.75;;;21.43;73.40
24336;BME280;33098;52.400;16.880;2022-07-23T03:42:10;100752.51;;;21.42;73.52
24336;BME280;33098;52.400;16.880;2022-07-23T03:44:37;100752.08;;;21.45;73.69
24336;BME280;33098;52.400;16.880;2022-07-23T03:47:05;100757.61;;;21.49;73.73
24336;BME280;33098;52.400;16.880;2022-07-23T03:49:32;100758.46;;;21.54;73.74
24336;BME280;33098;52.400;16.880;2022-07-23T03:52:00;100756.70;;;21.57;73.83
24336;BME280;33098;52.400;16.880;2022-07-23T03:54:27;100762.02;;;21.56;73.37
24336;BME280;33098;52.400;16.880;2022-07-23T03:56:53;100767.02;;;21.55;73.74
24336;BME280;33098;52.400;16.880;2022-07-23T03:59:20;100768.95;;;21.52;73.59
24336;BME280;33098;52.400;16.880;2022-07-23T04:01:46;100769.55;;;21.49;73.74
24336;BME280;33098;52.400;16.880;2022-07-23T04:04:13;100758.39;;;21.48;73.84
24336;BME280;33098;52.400;16.880;2022-07-23T04:06:40;100761.80;;;21.44;73.74
24336;BME280;33098;52.400;16.880;2022-07-23T04:09:07;100762.66;;;21.41;73.84
24336;BME280;33098;52.400;16.880;2022-07-23T04:11:33;100763.02;;;21.39;74.15
24336;BME280;33098;52.400;16.880;2022-07-23T04:14:00;100763.76;;;21.41;74.20
24336;BME280;33098;52.400;16.880;2022-07-23T04:16:27;100763.52;;;21.45;74.41
24336;BME280;33098;52.400;16.880;2022-07-23T04:18:54;100761.06;;;21.47;74.58
24336;BME280;33098;52.400;16.880;2022-07-23T04:21:24;100760.70;;;21.52;74.76
24336;BME280;33098;52.400;16.880;2022-07-23T04:23:51;100763.83;;;21.56;74.84
24336;BME280;33098;52.400;16.880;2022-07-23T04:26:17;100764.96;;;21.52;74.65
24336;BME280;33098;52.400;16.880;2022-07-23T04:28:44;100763.45;;;21.58;74.66
24336;BME280;33098;52.400;16.880;2022-07-23T04:31:11;100762.55;;;21.62;74.75
24336;BME280;33098;52.400;16.880;2022-07-23T04:33:39;100766.39;;;21.62;74.43
24336;BME280;33098;52.400;16.880;2022-07-23T04:36:06;100763.23;;;21.61;74.54
24336;BME280;33098;52.400;16.880;2022-07-23T04:38:33;100758.86;;;21.66;74.77
24336;BME280;33098;52.400;16.880;2022-07-23T04:41:01;100755.52;;;21.77;74.89
24336;BME280;33098;52.400;16.880;2022-07-23T04:43:28;100753.35;;;21.86;74.90
24336;BME280;33098;52.400;16.880;2022-07-23T04:45:54;100747.52;;;21.91;74.51
24336;BME280;33098;52.400;16.880;2022-07-23T04:48:21;100742.55;;;21.93;74.55
24336;BME280;33098;52.400;16.880;2022-07-23T04:50:51;100738.73;;;22.03;74.65
24336;BME280;33098;52.400;16.880;2022-07-23T04:53:22;100736.68;;;22.13;74.49
24336;BME280;33098;52.400;16.880;2022-07-23T04:55:51;100730.09;;;22.17;74.35
24336;BME280;33098;52.400;16.880;2022-07-23T04:58:17;100734.92;;;22.27;74.60
24336;BME280;33098;52.400;16.880;2022-07-23T05:00:44;100730.34;;;22.33;74.36
24336;BME280;33098;52.400;16.880;2022-07-23T05:03:10;100723.80;;;22.42;74.12
24336;BME280;33098;52.400;16.880;2022-07-23T05:05:37;100717.11;;;22.49;73.88
24336;BME280;33098;52.400;16.880;2022-07-23T05:08:10;100716.48;;;22.52;73.61
24336;BME280;33098;52.400;16.880;2022-07-23T05:10:38;100713.52;;;22.56;73.57
24336;BME280;33098;52.400;16.880;2022-07-23T05:13:05;100713.84;;;22.59;73.50
24336;BME280;33098;52.400;16.880;2022-07-23T05:15:31;100710.34;;;22.68;73.60
24336;BME280;33098;52.400;16.880;2022-07-23T05:17:58;100705.52;;;22.75;73.66
24336;BME280;33098;52.400;16.880;2022-07-23T05:20:25;100701.14;;;22.76;73.56
24336;BME280;33098;52.400;16.880;2022-07-23T05:22:52;100702.23;;;22.77;73.39
24336;BME280;33098;52.400;16.880;2022-07-23T05:25:19;100701.25;;;22.74;73.48
24336;BME280;33098;52.400;16.880;2022-07-23T05:27:45;100699.45;;;22.74;73.40
24336;BME280;33098;52.400;16.880;2022-07-23T05:30:13;100701.31;;;22.77;73.59
24336;BME280;33098;52.400;16.880;2022-07-23T05:32:41;100700.48;;;22.82;73.50
24336;BME280;33098;52.400;16.880;2022-07-23T05:35:12;100689.17;;;22.88;73.50
24336;BME280;33098;52.400;16.880;2022-07-23T05:37:41;100687.19;;;22.94;73.54
24336;BME280;33098;52.400;16.880;2022-07-23T05:40:09;100683.05;;;23.02;73.46
24336;BME280;33098;52.400;16.880;2022-07-23T05:42:38;100680.86;;;23.09;73.37
24336;BME280;33098;52.400;16.880;2022-07-23T05:45:05;100673.15;;;23.15;73.33
24336;BME280;33098;52.400;16.880;2022-07-23T05:47:40;100674.76;;;23.22;73.19
24336;BME280;33098;52.400;16.880;2022-07-23T05:50:07;100676.42;;;23.28;73.12
24336;BME280;33098;52.400;16.880;2022-07-23T05:52:41;100679.83;;;23.33;72.88
24336;BME280;33098;52.400;16.880;2022-07-23T05:55:28;100676.06;;;23.30;72.96
24336;BME280;33098;52.400;16.880;2022-07-23T05:57:58;100672.27;;;23.27;73.02
24336;BME280;33098;52.400;16.880;2022-07-23T06:00:26;100667.09;;;23.31;73.00
24336;BME280;33098;52.400;16.880;2022-07-23T06:02:53;100664.14;;;23.35;73.09
24336;BME280;33098;52.400;16.880;2022-07-23T06:05:20;100657.50;;;23.46;73.05
24336;BME280;33098;52.400;16.880;2022-07-23T06:07:47;100651.75;;;23.56;73.00
24336;BME280;33098;52.400;16.880;2022-07-23T06:10:14;100654.02;;;23.66;72.91
24336;BME280;33098;52.400;16.880;2022-07-23T06:12:41;100653.76;;;23.75;72.93
24336;BME280;33098;52.400;16.880;2022-07-23T06:15:08;100648.72;;;23.81;72.61
24336;BME280;33098;52.400;16.880;2022-07-23T06:17:35;100648.61;;;23.87;72.21
24336;BME280;33098;52.400;16.880;2022-07-23T06:20:03;100651.17;;;23.92;72.14
24336;BME280;33098;52.400;16.880;2022-07-23T06:22:29;100656.00;;;23.98;71.92
24336;BME280;33098;52.400;16.880;2022-07-23T06:24:56;100649.10;;;24.01;71.86
24336;BME280;33098;52.400;16.880;2022-07-23T06:27:23;100652.75;;;24.04;71.67
24336;BME280;33098;52.400;16.880;2022-07-23T06:29:50;100655.36;;;24.07;71.64
24336;BME280;33098;52.400;16.880;2022-07-23T06:32:16;100654.20;;;24.11;71.51
24336;BME280;33098;52.400;16.880;2022-07-23T06:34:43;100645.30;;;24.18;71.47
24336;BME280;33098;52.400;16.880;2022-07-23T06:37:12;100644.44;;;24.25;71.23
24336;BME280;33098;52.400;16.880;2022-07-23T06:39:38;100653.32;;;24.29;70.93
24336;BME280;33098;52.400;16.880;2022-07-23T06:42:05;100660.10;;;24.37;70.78
24336;BME280;33098;52.400;16.880;2022-07-23T06:44:44;100659.15;;;24.45;70.66
24336;BME280;33098;52.400;16.880;2022-07-23T06:47:10;100654.25;;;24.50;70.28
24336;BME280;33098;52.400;16.880;2022-07-23T06:49:37;100653.77;;;24.54;70.03
24336;BME280;33098;52.400;16.880;2022-07-23T06:52:03;100648.98;;;24.56;69.71
24336;BME280;33098;52.400;16.880;2022-07-23T06:54:31;100645.02;;;24.62;69.55
24336;BME280;33098;52.400;16.880;2022-07-23T06:56:57;100651.00;;;24.66;69.04
24336;BME280;33098;52.400;16.880;2022-07-23T06:59:24;100654.77;;;24.71;68.87
24336;BME280;33098;52.400;16.880;2022-07-23T07:01:51;100652.21;;;24.77;68.56
24336;BME280;33098;52.400;16.880;2022-07-23T07:04:17;100655.71;;;24.87;68.47
24336;BME280;33098;52.400;16.880;2022-07-23T07:06:44;100652.23;;;25.03;67.93
24336;BME280;33098;52.400;16.880;2022-07-23T07:09:11;100649.80;;;25.19;67.55
24336;BME280;33098;52.400;16.880;2022-07-23T07:11:37;100649.88;;;25.34;67.25
24336;BME280;33098;52.400;16.880;2022-07-23T07:14:04;100644.48;;;25.45;67.03
24336;BME280;33098;52.400;16.880;2022-07-23T07:16:30;100638.78;;;25.50;66.44
24336;BME280;33098;52.400;16.880;2022-07-23T07:18:57;100639.14;;;25.55;66.23
24336;BME280;33098;52.400;16.880;2022-07-23T07:21:23;100649.38;;;25.65;66.20
24336;BME280;33098;52.400;16.880;2022-07-23T07:23:50;100646.45;;;25.76;65.53
24336;BME280;33098;52.400;16.880;2022-07-23T07:26:16;100653.49;;;25.73;65.02
24336;BME280;33098;52.400;16.880;2022-07-23T07:28:43;100656.41;;;25.76;64.89
24336;BME280;33098;52.400;16.880;2022-07-23T07:31:09;100657.77;;;25.84;65.06
24336;BME280;33098;52.400;16.880;2022-07-23T07:33:36;100662.39;;;26.01;64.91
24336;BME280;33098;52.400;16.880;2022-07-23T07:36:03;100660.76;;;26.12;64.45
24336;BME280;33098;52.400;16.880;2022-07-23T07:38:30;100666.73;;;26.24;64.02
24336;BME280;33098;52.400;16.880;2022-07-23T07:40:56;100663.27;;;26.28;63.57
24336;BME280;33098;52.400;16.880;2022-07-23T07:43:23;100668.34;;;26.25;63.42
24336;BME280;33098;52.400;16.880;2022-07-23T07:45:49;100671.14;;;26.29;63.19
24336;BME280;33098;52.400;16.880;2022-07-23T07:48:16;100670.30;;;26.23;62.54
24336;BME280;33098;52.400;16.880;2022-07-23T07:50:43;100674.81;;;26.18;62.52
24336;BME280;33098;52.400;16.880;2022-07-23T07:53:09;100678.90;;;26.15;62.26
24336;BME280;33098;52.400;16.880;2022-07-23T07:55:36;100676.72;;;26.16;62.25
24336;BME280;33098;52.400;16.880;2022-07-23T07:58:02;100670.87;;;26.23;62.33
24336;BME280;33098;52.400;16.880;2022-07-23T08:00:29;100671.24;;;26.32;62.25
24336;BME280;33098;52.400;16.880;2022-07-23T08:02:55;100672.80;;;26.36;62.13
24336;BME280;33098;52.400;16.880;2022-07-23T08:05:24;100688.98;;;26.30;61.76
24336;BME280;33098;52.400;16.880;2022-07-23T08:07:51;100700.39;;;26.17;61.19
24336;BME280;33098;52.400;16.880;2022-07-23T08:10:18;100714.11;;;26.03;61.21
24336;BME280;33098;52.400;16.880;2022-07-23T08:12:50;100731.59;;;25.81;61.25
24336;BME280;33098;52.400;16.880;2022-07-23T08:15:19;100743.59;;;25.54;61.60
24336;BME280;33098;52.400;16.880;2022-07-23T08:17:47;100755.59;;;25.32;62.08
24336;BME280;33098;52.400;16.880;2022-07-23T08:20:15;100753.95;;;25.17;62.39
24336;BME280;33098;52.400;16.880;2022-07-23T08:22:52;100744.45;;;25.19;63.08
24336;BME280;33098;52.400;16.880;2022-07-23T08:25:22;100736.98;;;25.29;64.44
24336;BME280;33098;52.400;16.880;2022-07-23T08:27:49;100739.72;;;25.37;64.73
24336;BME280;33098;52.400;16.880;2022-07-23T08:30:17;100750.73;;;25.32;66.13
24336;BME280;33098;52.400;16.880;2022-07-23T08:35:27;100741.21;;;25.24;68.98
24336;BME280;33098;52.400;16.880;2022-07-23T08:37:54;100750.98;;;25.19;69.61
24336;BME280;33098;52.400;16.880;2022-07-23T08:40:21;100745.48;;;25.09;70.41
24336;BME280;33098;52.400;16.880;2022-07-23T08:42:49;100757.02;;;25.10;71.53
24336;BME280;33098;52.400;16.880;2022-07-23T08:45:21;100765.86;;;25.03;71.69
24336;BME280;33098;52.400;16.880;2022-07-23T08:47:53;100760.16;;;24.93;72.04
24336;BME280;33098;52.400;16.880;2022-07-23T08:50:20;100747.84;;;24.94;72.57
24336;BME280;33098;52.400;16.880;2022-07-23T08:52:52;100741.89;;;25.02;72.64
24336;BME280;33098;52.400;16.880;2022-07-23T08:55:21;100733.64;;;25.08;72.50
24336;BME280;33098;52.400;16.880;2022-07-23T08:57:50;100725.88;;;25.14;72.73
24336;BME280;33098;52.400;16.880;2022-07-23T09:00:17;100731.00;;;25.14;73.06
24336;BME280;33098;52.400;16.880;2022-07-23T09:02:45;100741.60;;;25.07;73.01
24336;BME280;33098;52.400;16.880;2022-07-23T09:05:13;100748.26;;;24.96;72.77
24336;BME280;33098;52.400;16.880;2022-07-23T09:08:12;100745.57;;;24.95;73.03
24336;BME280;33098;52.400;16.880;2022-07-23T09:13:30;100718.34;;;25.03;72.95
24336;BME280;33098;52.400;16.880;2022-07-23T09:16:00;100724.26;;;25.05;73.01
24336;BME280;33098;52.400;16.880;2022-07-23T09:18:31;100735.78;;;25.06;73.30
24336;BME280;33098;52.400;16.880;2022-07-23T09:21:06;100746.77;;;25.05;73.50
24336;BME280;33098;52.400;16.880;2022-07-23T09:26:18;100763.73;;;25.11;73.18
24336;BME280;33098;52.400;16.880;2022-07-23T09:31:51;100768.55;;;25.08;73.38
24336;BME280;33098;52.400;16.880;2022-07-23T09:34:34;100776.54;;;25.05;73.66
24336;BME280;33098;52.400;16.880;2022-07-23T09:39:39;100769.70;;;24.92;73.48
24336;BME280;33098;52.400;16.880;2022-07-23T09:42:23;100769.88;;;24.90;73.78
24336;BME280;33098;52.400;16.880;2022-07-23T09:44:56;100771.73;;;24.80;73.79
24336;BME280;33098;52.400;16.880;2022-07-23T09:47:27;100770.40;;;24.74;74.09
24336;BME280;33098;52.400;16.880;2022-07-23T09:50:07;100755.35;;;24.67;74.05
24336;BME280;33098;52.400;16.880;2022-07-23T09:52:49;100750.33;;;24.60;74.29
24336;BME280;33098;52.400;16.880;2022-07-23T09:55:17;100751.02;;;24.55;74.69
24336;BME280;33098;52.400;16.880;2022-07-23T09:57:46;100747.05;;;24.54;74.83
24336;BME280;33098;52.400;16.880;2022-07-23T10:00:22;100745.33;;;24.51;74.98
24336;BME280;33098;52.400;16.880;2022-07-23T10:02:49;100738.00;;;24.50;75.25
24336;BME280;33098;52.400;16.880;2022-07-23T10:05:37;100735.80;;;24.48;75.33
24336;BME280;33098;52.400;16.880;2022-07-23T10:08:28;100733.46;;;24.47;75.27
24336;BME280;33098;52.400;16.880;2022-07-23T10:11:14;100737.13;;;24.37;75.23
24336;BME280;33098;52.400;16.880;2022-07-23T10:13:48;100743.10;;;24.32;75.24
24336;BME280;33098;52.400;16.880;2022-07-23T10:16:38;100757.68;;;24.27;75.47
24336;BME280;33098;52.400;16.880;2022-07-23T10:19:05;100759.52;;;24.28;75.52
24336;BME280;33098;52.400;16.880;2022-07-23T10:22:06;100762.08;;;24.27;75.53
24336;BME280;33098;52.400;16.880;2022-07-23T10:25:08;100753.31;;;24.24;75.63
24336;BME280;33098;52.400;16.880;2022-07-23T10:28:10;100750.39;;;24.26;75.66
24336;BME280;33098;52.400;16.880;2022-07-23T10:30:54;100745.23;;;24.29;75.83
24336;BME280;33098;52.400;16.880;2022-07-23T10:33:49;100743.31;;;24.36;75.83
24336;BME280;33098;52.400;16.880;2022-07-23T10:37:11;100741.73;;;24.41;75.66
24336;BME280;33098;52.400;16.880;2022-07-23T10:39:19;100729.00;;;24.36;75.23
24336;BME280;33098;52.400;16.880;2022-07-23T10:41:46;100719.07;;;24.29;74.95
24336;BME280;33098;52.400;16.880;2022-07-23T10:44:18;100722.81;;;24.26;74.79
24336;BME280;33098;52.400;16.880;2022-07-23T10:47:00;100726.16;;;24.25;74.93
24336;BME280;33098;52.400;16.880;2022-07-23T10:49:46;100730.73;;;24.22;74.86
24336;BME280;33098;52.400;16.880;2022-07-23T10:52:28;100724.45;;;24.12;75.44
24336;BME280;33098;52.400;16.880;2022-07-23T10:57:48;100714.18;;;23.97;76.85
24336;BME280;33098;52.400;16.880;2022-07-23T11:00:20;100709.66;;;23.86;77.75
24336;BME280;33098;52.400;16.880;2022-07-23T11:02:50;100708.16;;;23.91;78.06
24336;BME280;33098;52.400;16.880;2022-07-23T11:05:19;100704.14;;;23.97;77.88
24336;BME280;33098;52.400;16.880;2022-07-23T11:10:36;100699.34;;;24.09;77.99
24336;BME280;33098;52.400;16.880;2022-07-23T11:16:07;100704.04;;;24.25;78.10
24336;BME280;33098;52.400;16.880;2022-07-23T11:32:01;100726.41;;;24.68;76.53
24336;BME280;33098;52.400;16.880;2022-07-23T11:34:41;100727.84;;;24.74;76.59
24336;BME280;33098;52.400;16.880;2022-07-23T11:37:09;100730.95;;;24.89;76.60
24336;BME280;33098;52.400;16.880;2022-07-23T11:39:37;100732.20;;;24.98;76.34
24336;BME280;33098;52.400;16.880;2022-07-23T11:42:05;100729.70;;;25.05;76.20
24336;BME280;33098;52.400;16.880;2022-07-23T11:44:35;100728.61;;;25.13;76.17
24336;BME280;33098;52.400;16.880;2022-07-23T11:47:08;100729.73;;;25.27;76.09
24336;BME280;33098;52.400;16.880;2022-07-23T11:49:35;100725.66;;;25.47;75.96
24336;BME280;33098;52.400;16.880;2022-07-23T11:52:08;100722.17;;;25.65;75.81
24336;BME280;33098;52.400;16.880;2022-07-23T11:54:47;100720.64;;;25.73;75.20
24336;BME280;33098;52.400;16.880;2022-07-23T11:57:14;100726.80;;;25.77;74.67
24336;BME280;33098;52.400;16.880;2022-07-23T11:59:42;100728.38;;;25.78;74.44
24336;BME280;33098;52.400;16.880;2022-07-23T12:02:10;100727.37;;;25.79;74.23
24336;BME280;33098;52.400;16.880;2022-07-23T12:09:54;100741.02;;;25.76;73.73
24336;BME280;33098;52.400;16.880;2022-07-23T12:12:22;100743.13;;;25.73;73.45
24336;BME280;33098;52.400;16.880;2022-07-23T12:14:57;100746.76;;;25.65;73.03
24336;BME280;33098;52.400;16.880;2022-07-23T12:17:30;100738.47;;;25.55;72.93
24336;BME280;33098;52.400;16.880;2022-07-23T12:19:58;100739.14;;;25.57;73.03
24336;BME280;33098;52.400;16.880;2022-07-23T12:22:27;100733.41;;;25.61;72.81
24336;BME280;33098;52.400;16.880;2022-07-23T12:25:02;100731.36;;;25.62;72.42
24336;BME280;33098;52.400;16.880;2022-07-23T12:27:30;100725.58;;;25.63;72.12
24336;BME280;33098;52.400;16.880;2022-07-23T12:29:57;100720.33;;;25.68;72.13
24336;BME280;33098;52.400;16.880;2022-07-23T12:32:26;100705.11;;;25.86;72.26
24336;BME280;33098;52.400;16.880;2022-07-23T12:35:07;100687.31;;;26.20;72.14
24336;BME280;33098;52.400;16.880;2022-07-23T12:37:37;100678.20;;;26.58;71.69
24336;BME280;33098;52.400;16.880;2022-07-23T12:40:26;100685.94;;;26.92;71.07
24336;BME280;33098;52.400;16.880;2022-07-23T12:42:58;100687.41;;;27.33;70.33
24336;BME280;33098;52.400;16.880;2022-07-23T12:45:26;100692.19;;;27.48;69.38
24336;BME280;33098;52.400;16.880;2022-07-23T12:48:00;100689.95;;;27.52;68.42
24336;BME280;33098;52.400;16.880;2022-07-23T12:50:50;100691.55;;;27.52;67.67
24336;BME280;33098;52.400;16.880;2022-07-23T12:53:26;100694.70;;;27.57;67.03
24336;BME280;33098;52.400;16.880;2022-07-23T12:56:00;100698.44;;;27.68;66.57
24336;BME280;33098;52.400;16.880;2022-07-23T12:58:52;100698.00;;;27.90;66.91
24336;BME280;33098;52.400;16.880;2022-07-23T13:04:08;100702.89;;;28.17;65.79
24336;BME280;33098;52.400;16.880;2022-07-23T13:06:38;100706.02;;;28.32;65.28
24336;BME280;33098;52.400;16.880;2022-07-23T13:09:07;100707.66;;;28.41;64.90
24336;BME280;33098;52.400;16.880;2022-07-23T13:11:34;100708.48;;;28.45;64.50
24336;BME280;33098;52.400;16.880;2022-07-23T13:14:01;100714.02;;;28.61;64.84
24336;BME280;33098;52.400;16.880;2022-07-23T13:16:29;100721.35;;;28.76;64.30
24336;BME280;33098;52.400;16.880;2022-07-23T13:18:57;100721.84;;;28.80;63.83
24336;BME280;33098;52.400;16.880;2022-07-23T13:21:25;100722.32;;;28.81;63.55
24336;BME280;33098;52.400;16.880;2022-07-23T13:23:52;100718.10;;;28.86;63.11
24336;BME280;33098;52.400;16.880;2022-07-23T13:26:18;100720.98;;;28.85;62.53
24336;BME280;33098;52.400;16.880;2022-07-23T13:28:45;100718.59;;;28.69;62.46
24336;BME280;33098;52.400;16.880;2022-07-23T13:31:13;100723.80;;;28.51;62.55
24336;BME280;33098;52.400;16.880;2022-07-23T13:33:40;100730.06;;;28.38;62.63
24336;BME280;33098;52.400;16.880;2022-07-23T13:36:06;100730.48;;;28.23;62.58